sensor_id;sensor_type;location;lat;lon;timestamp;P1;durP1;ratioP1;P2;durP2;ratioP2
14738;SDS011;7461;52.440;13.540;2023-04-06T00:00:38;15.23;;;13.88;;
14738;SDS011;7461;52.440;13.540;2023-04-06T00:03:05;15.82;;;14.45;;
14738;SDS011;7461;52.440;13.540;2023-04-06T00:05:32;15.18;;;13.80;;
14738;SDS011;7461;52.440;13.540;2023-04-06T00:08:01;15.85;;;14.20;;
14738;SDS011;7461;52.440;13.540;2023-04-06T00:10:28;16.85;;;15.15;;
14738;SDS011;7461;52.440;13.540;2023-04-06T00:12:55;17.42;;;15.88;;
14738;SDS011;7461;52.440;13.540;2023-04-06T00:15:22;14.93;;;13.80;;
14738;SDS011;7461;52.440;13.540;2023-04-06T00:17:50;15.80;;;14.38;;
14738;SDS011;7461;52.440;13.540;2023-04-06T00:20:17;17.58;;;15.80;;
14738;SDS011;7461;52.440;13.540;2023-04-06T00:22:45;18.65;;;17.05;;
14738;SDS011;7461;52.440;13.540;2023-04-06T00:25:13;16.50;;;15.18;;
14738;SDS011;7461;52.440;13.540;2023-04-06T00:27:41;15.68;;;14.35;;
14738;SDS011;7461;52.440;13.540;2023-04-06T00:30:09;15.73;;;14.38;;
14738;SDS011;7461;52.440;13.540;2023-04-06T00:32:39;13.25;;;12.05;;
14738;SDS011;7461;52.440;13.540;2023-04-06T00:35:06;14.07;;;12.60;;
14738;SDS011;7461;52.440;13.540;2023-04-06T00:37:34;14.52;;;13.43;;
14738;SDS011;7461;52.440;13.540;2023-04-06T00:40:01;13.63;;;12.52;;
14738;SDS011;7461;52.440;13.540;2023-04-06T00:42:29;15.52;;;13.90;;
14738;SDS011;7461;52.440;13.540;2023-04-06T00:44:57;14.43;;;13.18;;
14738;SDS011;7461;52.440;13.540;2023-04-06T00:47:26;13.07;;;12.18;;
14738;SDS011;7461;52.440;13.540;2023-04-06T00:49:53;14.32;;;13.10;;
14738;SDS011;7461;52.440;13.540;2023-04-06T00:52:21;15.43;;;13.90;;
14738;SDS011;7461;52.440;13.540;2023-04-06T00:54:48;15.73;;;14.40;;
14738;SDS011;7461;52.440;13.540;2023-04-06T00:57:15;14.40;;;13.27;;
14738;SDS011;7461;52.440;13.540;2023-04-06T00:59:44;15.45;;;13.98;;
14738;SDS011;7461;52.440;13.540;2023-04-06T01:02:11;14.68;;;13.35;;
14738;SDS011;7461;52.440;13.540;2023-04-06T01:04:39;14.93;;;13.57;;
14738;SDS011;7461;52.440;13.540;2023-04-06T01:07:06;14.10;;;12.70;;
14738;SDS011;7461;52.440;13.540;2023-04-06T01:09:33;15.82;;;14.27;;
14738;SDS011;7461;52.440;13.540;2023-04-06T01:12:00;15.55;;;14.25;;
14738;SDS011;7461;52.440;13.540;2023-04-06T01:14:28;16.15;;;14.95;;
14738;SDS011;7461;52.440;13.540;2023-04-06T01:16:58;14.13;;;12.85;;
14738;SDS011;7461;52.440;13.540;2023-04-06T01:19:26;13.80;;;12.70;;
14738;SDS011;7461;52.440;13.540;2023-04-06T01:21:54;15.93;;;14.50;;
14738;SDS011;7461;52.440;13.540;2023-04-06T01:24:22;14.65;;;13.65;;
14738;SDS011;7461;52.440;13.540;2023-04-06T01:26:49;15.75;;;14.52;;
14738;SDS011;7461;52.440;13.540;2023-04-06T01:29:16;15.98;;;14.55;;
14738;SDS011;7461;52.440;13.540;2023-04-06T01:31:43;14.20;;;13.20;;
14738;SDS011;7461;52.440;13.540;2023-04-06T01:34:10;14.60;;;13.23;;
14738;SDS011;7461;52.440;13.540;2023-04-06T01:36:37;15.13;;;13.98;;
14738;SDS011;7461;52.440;13.540;2023-04-06T01:39:05;13.25;;;12.25;;
14738;SDS011;7461;52.440;13.540;2023-04-06T01:41:33;14.07;;;13.00;;
14738;SDS011;7461;52.440;13.540;2023-04-06T01:44:00;15.02;;;13.75;;
14738;SDS011;7461;52.440;13.540;2023-04-06T01:46:27;14.45;;;13.52;;
14738;SDS011;7461;52.440;13.540;2023-04-06T01:48:54;14.45;;;13.30;;
14738;SDS011;7461;52.440;13.540;2023-04-06T01:51:21;13.35;;;12.25;;
14738;SDS011;7461;52.440;13.540;2023-04-06T01:53:49;13.88;;;12.73;;
14738;SDS011;7461;52.440;13.540;2023-04-06T01:56:16;12.77;;;11.73;;
14738;SDS011;7461;52.440;13.540;2023-04-06T01:58:44;13.73;;;12.63;;
14738;SDS011;7461;52.440;13.540;2023-04-06T02:01:11;13.23;;;12.32;;
14738;SDS011;7461;52.440;13.540;2023-04-06T02:03:38;15.25;;;14.07;;
14738;SDS011;7461;52.440;13.540;2023-04-06T02:06:06;14.88;;;13.52;;
14738;SDS011;7461;52.440;13.540;2023-04-06T02:08:33;13.55;;;12.25;;
14738;SDS011;7461;52.440;13.540;2023-04-06T02:11:00;14.82;;;13.43;;
14738;SDS011;7461;52.440;13.540;2023-04-06T02:13:27;12.77;;;11.68;;
14738;SDS011;7461;52.440;13.540;2023-04-06T02:15:55;13.65;;;12.55;;
14738;SDS011;7461;52.440;13.540;2023-04-06T02:18:23;12.65;;;11.73;;
14738;SDS011;7461;52.440;13.540;2023-04-06T02:20:50;12.10;;;11.18;;
14738;SDS011;7461;52.440;13.540;2023-04-06T02:23:17;12.48;;;11.48;;
14738;SDS011;7461;52.440;13.540;2023-04-06T02:25:44;10.70;;;9.90;;
14738;SDS011;7461;52.440;13.540;2023-04-06T02:28:11;13.55;;;12.32;;
14738;SDS011;7461;52.440;13.540;2023-04-06T02:30:38;10.95;;;9.95;;
14738;SDS011;7461;52.440;13.540;2023-04-06T02:33:07;11.25;;;10.32;;
14738;SDS011;7461;52.440;13.540;2023-04-06T02:35:36;11.38;;;10.57;;
14738;SDS011;7461;52.440;13.540;2023-04-06T02:38:03;11.30;;;10.23;;
14738;SDS011;7461;52.440;13.540;2023-04-06T02:40:30;10.63;;;9.73;;
14738;SDS011;7461;52.440;13.540;2023-04-06T02:42:57;12.65;;;11.75;;
14738;SDS011;7461;52.440;13.540;2023-04-06T02:45:24;11.07;;;10.18;;
14738;SDS011;7461;52.440;13.540;2023-04-06T02:47:51;14.25;;;11.45;;
14738;SDS011;7461;52.440;13.540;2023-04-06T02:50:20;12.07;;;11.07;;
14738;SDS011;7461;52.440;13.540;2023-04-06T02:52:47;11.40;;;10.52;;
14738;SDS011;7461;52.440;13.540;2023-04-06T02:55:14;10.65;;;9.75;;
14738;SDS011;7461;52.440;13.540;2023-04-06T02:57:41;11.07;;;10.18;;
14738;SDS011;7461;52.440;13.540;2023-04-06T03:00:09;11.25;;;10.43;;
14738;SDS011;7461;52.440;13.540;2023-04-06T03:02:36;11.02;;;10.23;;
14738;SDS011;7461;52.440;13.540;2023-04-06T03:05:04;11.85;;;10.40;;
14738;SDS011;7461;52.440;13.540;2023-04-06T03:07:32;9.63;;;8.95;;
14738;SDS011;7461;52.440;13.540;2023-04-06T03:09:59;10.25;;;9.48;;
14738;SDS011;7461;52.440;13.540;2023-04-06T03:12:26;11.55;;;10.68;;
14738;SDS011;7461;52.440;13.540;2023-04-06T03:14:53;12.45;;;10.98;;
14738;SDS011;7461;52.440;13.540;2023-04-06T03:17:20;11.07;;;10.38;;
14738;SDS011;7461;52.440;13.540;2023-04-06T03:19:47;10.57;;;9.68;;
14738;SDS011;7461;52.440;13.540;2023-04-06T03:22:14;10.57;;;9.77;;
14738;SDS011;7461;52.440;13.540;2023-04-06T03:24:43;13.02;;;12.07;;
14738;SDS011;7461;52.440;13.540;2023-04-06T03:27:10;11.60;;;10.70;;
14738;SDS011;7461;52.440;13.540;2023-04-06T03:29:37;12.50;;;11.57;;
14738;SDS011;7461;52.440;13.540;2023-04-06T03:32:06;12.38;;;11.25;;
14738;SDS011;7461;52.440;13.540;2023-04-06T03:34:34;11.18;;;10.35;;
14738;SDS011;7461;52.440;13.540;2023-04-06T03:37:01;12.45;;;11.32;;
14738;SDS011;7461;52.440;13.540;2023-04-06T03:39:31;12.27;;;11.20;;
14738;SDS011;7461;52.440;13.540;2023-04-06T03:41:59;14.70;;;13.27;;
14738;SDS011;7461;52.440;13.540;2023-04-06T03:44:26;12.52;;;11.25;;
14738;SDS011;7461;52.440;13.540;2023-04-06T03:46:53;13.95;;;12.75;;
14738;SDS011;7461;52.440;13.540;2023-04-06T03:49:20;12.23;;;11.07;;
14738;SDS011;7461;52.440;13.540;2023-04-06T03:51:47;12.32;;;11.57;;
14738;SDS011;7461;52.440;13.540;2023-04-06T03:54:14;10.93;;;10.23;;
14738;SDS011;7461;52.440;13.540;2023-04-06T03:56:44;12.95;;;11.63;;
14738;SDS011;7461;52.440;13.540;2023-04-06T03:59:15;12.52;;;11.43;;
14738;SDS011;7461;52.440;13.540;2023-04-06T04:01:42;11.57;;;10.80;;
14738;SDS011;7461;52.440;13.540;2023-04-06T04:04:09;10.27;;;9.38;;
14738;SDS011;7461;52.440;13.540;2023-04-06T04:06:36;11.57;;;10.60;;
14738;SDS011;7461;52.440;13.540;2023-04-06T04:09:03;11.27;;;10.38;;
14738;SDS011;7461;52.440;13.540;2023-04-06T04:11:30;12.65;;;11.25;;
14738;SDS011;7461;52.440;13.540;2023-04-06T04:13:57;11.15;;;10.35;;
14738;SDS011;7461;52.440;13.540;2023-04-06T04:16:26;13.75;;;11.85;;
14738;SDS011;7461;52.440;13.540;2023-04-06T04:18:53;11.38;;;10.32;;
14738;SDS011;7461;52.440;13.540;2023-04-06T04:21:20;11.32;;;10.25;;
14738;SDS011;7461;52.440;13.540;2023-04-06T04:23:47;11.45;;;10.65;;
14738;SDS011;7461;52.440;13.540;2023-04-06T04:26:14;10.85;;;10.15;;
14738;SDS011;7461;52.440;13.540;2023-04-06T04:28:41;11.23;;;10.43;;
14738;SDS011;7461;52.440;13.540;2023-04-06T04:31:08;13.43;;;12.23;;
14738;SDS011;7461;52.440;13.540;2023-04-06T04:33:36;11.50;;;10.57;;
14738;SDS011;7461;52.440;13.540;2023-04-06T04:36:05;11.02;;;10.25;;
14738;SDS011;7461;52.440;13.540;2023-04-06T04:38:33;11.73;;;10.93;;
14738;SDS011;7461;52.440;13.540;2023-04-06T04:41:00;12.13;;;11.15;;
14738;SDS011;7461;52.440;13.540;2023-04-06T04:43:27;13.20;;;11.88;;
14738;SDS011;7461;52.440;13.540;2023-04-06T04:45:54;13.93;;;11.70;;
14738;SDS011;7461;52.440;13.540;2023-04-06T04:48:21;12.05;;;11.15;;
14738;SDS011;7461;52.440;13.540;2023-04-06T04:50:49;11.90;;;10.90;;
14738;SDS011;7461;52.440;13.540;2023-04-06T04:53:16;12.20;;;11.40;;
14738;SDS011;7461;52.440;13.540;2023-04-06T04:55:43;11.63;;;10.60;;
14738;SDS011;7461;52.440;13.540;2023-04-06T04:58:10;12.27;;;11.43;;
14738;SDS011;7461;52.440;13.540;2023-04-06T05:00:41;12.60;;;11.60;;
14738;SDS011;7461;52.440;13.540;2023-04-06T05:03:08;12.25;;;11.40;;
14738;SDS011;7461;52.440;13.540;2023-04-06T05:05:40;15.82;;;11.57;;
14738;SDS011;7461;52.440;13.540;2023-04-06T05:08:08;12.82;;;11.88;;
14738;SDS011;7461;52.440;13.540;2023-04-06T05:10:35;12.70;;;11.77;;
14738;SDS011;7461;52.440;13.540;2023-04-06T05:13:02;13.50;;;12.15;;
14738;SDS011;7461;52.440;13.540;2023-04-06T05:15:29;13.52;;;12.43;;
14738;SDS011;7461;52.440;13.540;2023-04-06T05:17:56;12.45;;;11.55;;
14738;SDS011;7461;52.440;13.540;2023-04-06T05:20:23;12.98;;;11.40;;
14738;SDS011;7461;52.440;13.540;2023-04-06T05:22:51;12.15;;;10.60;;
14738;SDS011;7461;52.440;13.540;2023-04-06T05:25:20;11.55;;;10.63;;
14738;SDS011;7461;52.440;13.540;2023-04-06T05:27:47;12.23;;;11.18;;
14738;SDS011;7461;52.440;13.540;2023-04-06T05:30:14;15.45;;;12.73;;
14738;SDS011;7461;52.440;13.540;2023-04-06T05:32:41;14.02;;;12.77;;
14738;SDS011;7461;52.440;13.540;2023-04-06T05:35:09;11.55;;;10.70;;
14738;SDS011;7461;52.440;13.540;2023-04-06T05:37:37;12.80;;;11.55;;
14738;SDS011;7461;52.440;13.540;2023-04-06T05:40:05;12.65;;;11.75;;
14738;SDS011;7461;52.440;13.540;2023-04-06T05:45:08;12.38;;;11.55;;
14738;SDS011;7461;52.440;13.540;2023-04-06T05:47:36;12.25;;;11.43;;
14738;SDS011;7461;52.440;13.540;2023-04-06T05:50:03;12.23;;;11.15;;
14738;SDS011;7461;52.440;13.540;2023-04-06T05:52:31;12.05;;;11.02;;
14738;SDS011;7461;52.440;13.540;2023-04-06T05:54:59;10.48;;;9.68;;
14738;SDS011;7461;52.440;13.540;2023-04-06T05:57:26;13.02;;;11.98;;
14738;SDS011;7461;52.440;13.540;2023-04-06T05:59:54;12.18;;;11.23;;
14738;SDS011;7461;52.440;13.540;2023-04-06T06:02:22;12.10;;;11.20;;
14738;SDS011;7461;52.440;13.540;2023-04-06T06:04:49;11.90;;;10.88;;
14738;SDS011;7461;52.440;13.540;2023-04-06T06:07:16;12.73;;;11.80;;
14738;SDS011;7461;52.440;13.540;2023-04-06T06:09:43;11.73;;;10.93;;
14738;SDS011;7461;52.440;13.540;2023-04-06T06:12:10;12.70;;;11.82;;
14738;SDS011;7461;52.440;13.540;2023-04-06T06:14:37;11.60;;;10.88;;
14738;SDS011;7461;52.440;13.540;2023-04-06T06:17:06;12.00;;;11.20;;
14738;SDS011;7461;52.440;13.540;2023-04-06T06:19:36;11.35;;;10.52;;
14738;SDS011;7461;52.440;13.540;2023-04-06T06:22:03;12.98;;;11.98;;
14738;SDS011;7461;52.440;13.540;2023-04-06T06:24:30;11.75;;;10.80;;
14738;SDS011;7461;52.440;13.540;2023-04-06T06:26:57;11.13;;;10.13;;
14738;SDS011;7461;52.440;13.540;2023-04-06T06:29:24;10.18;;;9.35;;
14738;SDS011;7461;52.440;13.540;2023-04-06T06:31:52;10.23;;;9.52;;
14738;SDS011;7461;52.440;13.540;2023-04-06T06:34:20;10.57;;;9.68;;
14738;SDS011;7461;52.440;13.540;2023-04-06T06:36:47;10.80;;;9.75;;
14738;SDS011;7461;52.440;13.540;2023-04-06T06:39:14;8.95;;;8.35;;
14738;SDS011;7461;52.440;13.540;2023-04-06T06:41:41;9.80;;;8.93;;
14738;SDS011;7461;52.440;13.540;2023-04-06T06:44:08;11.65;;;10.75;;
14738;SDS011;7461;52.440;13.540;2023-04-06T06:46:36;13.82;;;12.70;;
14738;SDS011;7461;52.440;13.540;2023-04-06T06:49:03;11.43;;;10.45;;
14738;SDS011;7461;52.440;13.540;2023-04-06T06:51:32;9.85;;;9.02;;
14738;SDS011;7461;52.440;13.540;2023-04-06T06:53:59;10.00;;;9.20;;
14738;SDS011;7461;52.440;13.540;2023-04-06T06:56:26;11.48;;;10.57;;
14738;SDS011;7461;52.440;13.540;2023-04-06T06:58:53;11.23;;;10.18;;
14738;SDS011;7461;52.440;13.540;2023-04-06T07:01:20;10.07;;;9.15;;
14738;SDS011;7461;52.440;13.540;2023-04-06T07:03:47;10.30;;;9.45;;
14738;SDS011;7461;52.440;13.540;2023-04-06T07:06:14;8.93;;;8.23;;
14738;SDS011;7461;52.440;13.540;2023-04-06T07:08:43;9.93;;;8.93;;
14738;SDS011;7461;52.440;13.540;2023-04-06T07:11:10;7.32;;;6.82;;
14738;SDS011;7461;52.440;13.540;2023-04-06T07:13:37;10.52;;;9.52;;
14738;SDS011;7461;52.440;13.540;2023-04-06T07:16:04;9.70;;;8.70;;
14738;SDS011;7461;52.440;13.540;2023-04-06T07:18:31;9.77;;;8.93;;
14738;SDS011;7461;52.440;13.540;2023-04-06T07:20:59;8.23;;;7.63;;
14738;SDS011;7461;52.440;13.540;2023-04-06T07:23:26;8.75;;;7.60;;
14738;SDS011;7461;52.440;13.540;2023-04-06T07:25:54;7.72;;;7.20;;
14738;SDS011;7461;52.440;13.540;2023-04-06T07:28:21;8.32;;;7.72;;
14738;SDS011;7461;52.440;13.540;2023-04-06T07:30:48;8.70;;;7.78;;
14738;SDS011;7461;52.440;13.540;2023-04-06T07:33:16;7.00;;;6.25;;
14738;SDS011;7461;52.440;13.540;2023-04-06T07:35:43;7.32;;;6.82;;
14738;SDS011;7461;52.440;13.540;2023-04-06T07:38:10;7.20;;;6.60;;
14738;SDS011;7461;52.440;13.540;2023-04-06T07:40:37;6.63;;;6.13;;
14738;SDS011;7461;52.440;13.540;2023-04-06T07:43:06;9.60;;;8.70;;
14738;SDS011;7461;52.440;13.540;2023-04-06T07:45:33;7.22;;;6.60;;
14738;SDS011;7461;52.440;13.540;2023-04-06T07:48:00;7.78;;;7.28;;
14738;SDS011;7461;52.440;13.540;2023-04-06T07:50:27;7.80;;;7.10;;
14738;SDS011;7461;52.440;13.540;2023-04-06T07:52:54;8.73;;;7.85;;
14738;SDS011;7461;52.440;13.540;2023-04-06T07:55:23;7.00;;;6.40;;
14738;SDS011;7461;52.440;13.540;2023-04-06T07:57:50;7.25;;;6.75;;
14738;SDS011;7461;52.440;13.540;2023-04-06T08:00:19;6.72;;;6.22;;
14738;SDS011;7461;52.440;13.540;2023-04-06T08:02:47;5.65;;;5.28;;
14738;SDS011;7461;52.440;13.540;2023-04-06T08:05:14;5.72;;;5.15;;
14738;SDS011;7461;52.440;13.540;2023-04-06T08:07:43;6.45;;;5.95;;
14738;SDS011;7461;52.440;13.540;2023-04-06T08:10:10;5.18;;;4.85;;
14738;SDS011;7461;52.440;13.540;2023-04-06T08:12:37;5.82;;;5.25;;
14738;SDS011;7461;52.440;13.540;2023-04-06T08:15:05;5.40;;;4.90;;
14738;SDS011;7461;52.440;13.540;2023-04-06T08:17:33;5.15;;;4.65;;
14738;SDS011;7461;52.440;13.540;2023-04-06T08:20:01;7.10;;;5.35;;
14738;SDS011;7461;52.440;13.540;2023-04-06T08:22:29;6.00;;;4.85;;
14738;SDS011;7461;52.440;13.540;2023-04-06T08:24:56;5.65;;;5.15;;
14738;SDS011;7461;52.440;13.540;2023-04-06T08:27:23;10.93;;;9.85;;
14738;SDS011;7461;52.440;13.540;2023-04-06T08:29:51;5.93;;;5.38;;
14738;SDS011;7461;52.440;13.540;2023-04-06T08:32:18;5.22;;;4.68;;
14738;SDS011;7461;52.440;13.540;2023-04-06T08:34:47;4.43;;;4.13;;
14738;SDS011;7461;52.440;13.540;2023-04-06T08:37:14;4.43;;;4.03;;
14738;SDS011;7461;52.440;13.540;2023-04-06T08:39:41;5.25;;;4.72;;
14738;SDS011;7461;52.440;13.540;2023-04-06T08:42:10;5.88;;;4.00;;
14738;SDS011;7461;52.440;13.540;2023-04-06T08:44:41;4.78;;;4.38;;
14738;SDS011;7461;52.440;13.540;2023-04-06T08:47:09;4.97;;;4.57;;
14738;SDS011;7461;52.440;13.540;2023-04-06T08:49:37;3.92;;;3.70;;
14738;SDS011;7461;52.440;13.540;2023-04-06T08:52:07;4.72;;;4.40;;
14738;SDS011;7461;52.440;13.540;2023-04-06T08:54:34;3.88;;;3.67;;
14738;SDS011;7461;52.440;13.540;2023-04-06T08:57:01;4.88;;;4.07;;
14738;SDS011;7461;52.440;13.540;2023-04-06T08:59:31;5.90;;;3.60;;
14738;SDS011;7461;52.440;13.540;2023-04-06T09:01:59;3.85;;;3.55;;
14738;SDS011;7461;52.440;13.540;2023-04-06T09:04:29;4.72;;;3.50;;
14738;SDS011;7461;52.440;13.540;2023-04-06T09:06:56;3.53;;;2.72;;
14738;SDS011;7461;52.440;13.540;2023-04-06T09:09:25;3.00;;;2.80;;
14738;SDS011;7461;52.440;13.540;2023-04-06T09:11:52;4.95;;;4.05;;
14738;SDS011;7461;52.440;13.540;2023-04-06T09:14:33;2.65;;;2.53;;
14738;SDS011;7461;52.440;13.540;2023-04-06T09:17:01;4.38;;;3.35;;
14738;SDS011;7461;52.440;13.540;2023-04-06T09:19:28;3.92;;;3.70;;
14738;SDS011;7461;52.440;13.540;2023-04-06T09:22:01;3.85;;;3.55;;
14738;SDS011;7461;52.440;13.540;2023-04-06T09:24:40;4.55;;;4.03;;
14738;SDS011;7461;52.440;13.540;2023-04-06T09:27:08;3.80;;;3.17;;
14738;SDS011;7461;52.440;13.540;2023-04-06T09:29:35;4.00;;;3.75;;
14738;SDS011;7461;52.440;13.540;2023-04-06T09:32:03;3.45;;;3.15;;
14738;SDS011;7461;52.440;13.540;2023-04-06T09:34:31;3.08;;;2.88;;
14738;SDS011;7461;52.440;13.540;2023-04-06T09:36:59;3.40;;;3.20;;
14738;SDS011;7461;52.440;13.540;2023-04-06T09:39:26;2.50;;;2.30;;
14738;SDS011;7461;52.440;13.540;2023-04-06T09:41:55;3.47;;;2.67;;
14738;SDS011;7461;52.440;13.540;2023-04-06T09:44:22;4.40;;;4.00;;
14738;SDS011;7461;52.440;13.540;2023-04-06T09:46:50;8.15;;;4.22;;
14738;SDS011;7461;52.440;13.540;2023-04-06T09:49:21;2.50;;;2.30;;
14738;SDS011;7461;52.440;13.540;2023-04-06T09:51:52;3.05;;;2.85;;
14738;SDS011;7461;52.440;13.540;2023-04-06T09:54:22;3.33;;;3.13;;
14738;SDS011;7461;52.440;13.540;2023-04-06T09:56:51;5.55;;;3.67;;
14738;SDS011;7461;52.440;13.540;2023-04-06T09:59:25;3.65;;;3.33;;
14738;SDS011;7461;52.440;13.540;2023-04-06T10:02:03;2.75;;;2.35;;
14738;SDS011;7461;52.440;13.540;2023-04-06T10:04:34;2.78;;;2.58;;
14738;SDS011;7461;52.440;13.540;2023-04-06T10:07:06;2.35;;;2.25;;
14738;SDS011;7461;52.440;13.540;2023-04-06T10:09:37;4.32;;;3.03;;
14738;SDS011;7461;52.440;13.540;2023-04-06T10:12:04;3.53;;;3.25;;
14738;SDS011;7461;52.440;13.540;2023-04-06T10:14:34;4.70;;;2.83;;
14738;SDS011;7461;52.440;13.540;2023-04-06T10:17:02;2.00;;;1.90;;
14738;SDS011;7461;52.440;13.540;2023-04-06T10:19:34;4.88;;;3.10;;
14738;SDS011;7461;52.440;13.540;2023-04-06T10:22:08;3.92;;;2.90;;
14738;SDS011;7461;52.440;13.540;2023-04-06T10:24:38;3.00;;;2.78;;
14738;SDS011;7461;52.440;13.540;2023-04-06T10:27:06;4.00;;;2.97;;
14738;SDS011;7461;52.440;13.540;2023-04-06T10:29:46;2.83;;;2.28;;
14738;SDS011;7461;52.440;13.540;2023-04-06T10:32:14;3.83;;;2.95;;
14738;SDS011;7461;52.440;13.540;2023-04-06T10:34:41;3.92;;;2.95;;
14738;SDS011;7461;52.440;13.540;2023-04-06T10:37:15;3.65;;;2.90;;
14738;SDS011;7461;52.440;13.540;2023-04-06T10:39:45;3.80;;;2.90;;
14738;SDS011;7461;52.440;13.540;2023-04-06T10:42:13;4.50;;;3.45;;
14738;SDS011;7461;52.440;13.540;2023-04-06T10:44:42;3.75;;;3.45;;
14738;SDS011;7461;52.440;13.540;2023-04-06T10:47:16;3.35;;;3.05;;
14738;SDS011;7461;52.440;13.540;2023-04-06T10:49:44;2.78;;;2.58;;
14738;SDS011;7461;52.440;13.540;2023-04-06T10:52:11;3.47;;;2.70;;
14738;SDS011;7461;52.440;13.540;2023-04-06T10:54:40;3.30;;;3.00;;
14738;SDS011;7461;52.440;13.540;2023-04-06T10:57:09;3.45;;;3.15;;
14738;SDS011;7461;52.440;13.540;2023-04-06T10:59:36;3.58;;;3.22;;
14738;SDS011;7461;52.440;13.540;2023-04-06T11:02:03;3.67;;;3.40;;
14738;SDS011;7461;52.440;13.540;2023-04-06T11:04:32;3.25;;;2.72;;
14738;SDS011;7461;52.440;13.540;2023-04-06T11:06:59;3.35;;;3.00;;
14738;SDS011;7461;52.440;13.540;2023-04-06T11:09:27;3.60;;;3.40;;
14738;SDS011;7461;52.440;13.540;2023-04-06T11:11:56;3.05;;;2.72;;
14738;SDS011;7461;52.440;13.540;2023-04-06T11:14:23;4.93;;;3.80;;
14738;SDS011;7461;52.440;13.540;2023-04-06T11:16:51;3.67;;;3.42;;
14738;SDS011;7461;52.440;13.540;2023-04-06T11:19:18;3.80;;;3.50;;
14738;SDS011;7461;52.440;13.540;2023-04-06T11:21:47;3.47;;;3.28;;
14738;SDS011;7461;52.440;13.540;2023-04-06T11:24:16;2.83;;;2.63;;
14738;SDS011;7461;52.440;13.540;2023-04-06T11:26:45;7.13;;;4.28;;
14738;SDS011;7461;52.440;13.540;2023-04-06T11:29:15;3.50;;;3.20;;
14738;SDS011;7461;52.440;13.540;2023-04-06T11:31:44;3.45;;;3.15;;
14738;SDS011;7461;52.440;13.540;2023-04-06T11:34:13;3.40;;;3.10;;
14738;SDS011;7461;52.440;13.540;2023-04-06T11:36:42;3.42;;;3.13;;
14738;SDS011;7461;52.440;13.540;2023-04-06T11:39:12;2.90;;;2.60;;
14738;SDS011;7461;52.440;13.540;2023-04-06T11:41:39;3.05;;;2.70;;
14738;SDS011;7461;52.440;13.540;2023-04-06T11:44:06;3.40;;;3.13;;
14738;SDS011;7461;52.440;13.540;2023-04-06T11:46:33;3.67;;;3.38;;
14738;SDS011;7461;52.440;13.540;2023-04-06T11:49:01;3.67;;;3.38;;
14738;SDS011;7461;52.440;13.540;2023-04-06T11:51:28;3.33;;;3.10;;
14738;SDS011;7461;52.440;13.540;2023-04-06T11:53:55;3.40;;;3.10;;
14738;SDS011;7461;52.440;13.540;2023-04-06T11:56:25;3.72;;;3.42;;
14738;SDS011;7461;52.440;13.540;2023-04-06T11:58:54;3.63;;;3.38;;
14738;SDS011;7461;52.440;13.540;2023-04-06T12:01:22;3.25;;;3.05;;
14738;SDS011;7461;52.440;13.540;2023-04-06T12:03:49;3.53;;;3.33;;
14738;SDS011;7461;52.440;13.540;2023-04-06T12:06:17;3.30;;;3.10;;
14738;SDS011;7461;52.440;13.540;2023-04-06T12:08:44;3.00;;;2.72;;
14738;SDS011;7461;52.440;13.540;2023-04-06T12:11:11;2.78;;;2.55;;
14738;SDS011;7461;52.440;13.540;2023-04-06T12:13:40;3.00;;;2.80;;
14738;SDS011;7461;52.440;13.540;2023-04-06T12:16:07;3.20;;;2.97;;
14738;SDS011;7461;52.440;13.540;2023-04-06T12:18:34;3.28;;;3.08;;
14738;SDS011;7461;52.440;13.540;2023-04-06T12:21:01;5.03;;;2.83;;
14738;SDS011;7461;52.440;13.540;2023-04-06T12:23:30;4.03;;;3.15;;
14738;SDS011;7461;52.440;13.540;2023-04-06T12:25:57;3.58;;;2.85;;
14738;SDS011;7461;52.440;13.540;2023-04-06T12:28:24;3.25;;;3.05;;
14738;SDS011;7461;52.440;13.540;2023-04-06T12:30:53;3.13;;;2.92;;
14738;SDS011;7461;52.440;13.540;2023-04-06T12:33:21;7.20;;;3.28;;
14738;SDS011;7461;52.440;13.540;2023-04-06T12:35:48;3.17;;;2.97;;
14738;SDS011;7461;52.440;13.540;2023-04-06T12:38:15;2.63;;;2.42;;
14738;SDS011;7461;52.440;13.540;2023-04-06T12:40:42;3.10;;;2.90;;
14738;SDS011;7461;52.440;13.540;2023-04-06T12:43:09;3.75;;;3.35;;
14738;SDS011;7461;52.440;13.540;2023-04-06T12:45:38;3.38;;;3.17;;
14738;SDS011;7461;52.440;13.540;2023-04-06T12:48:07;31.55;;;28.65;;
14738;SDS011;7461;52.440;13.540;2023-04-06T12:50:34;5.20;;;4.75;;
14738;SDS011;7461;52.440;13.540;2023-04-06T12:53:01;3.95;;;3.70;;
14738;SDS011;7461;52.440;13.540;2023-04-06T12:55:29;3.33;;;2.65;;
14738;SDS011;7461;52.440;13.540;2023-04-06T12:57:59;3.88;;;3.47;;
14738;SDS011;7461;52.440;13.540;2023-04-06T13:00:26;4.20;;;2.80;;
14738;SDS011;7461;52.440;13.540;2023-04-06T13:02:53;2.75;;;2.55;;
14738;SDS011;7461;52.440;13.540;2023-04-06T13:05:22;3.40;;;3.20;;
14738;SDS011;7461;52.440;13.540;2023-04-06T13:07:49;3.85;;;3.45;;
14738;SDS011;7461;52.440;13.540;2023-04-06T13:10:16;4.30;;;3.90;;
14738;SDS011;7461;52.440;13.540;2023-04-06T13:12:43;4.18;;;3.78;;
14738;SDS011;7461;52.440;13.540;2023-04-06T13:15:10;3.15;;;2.95;;
14738;SDS011;7461;52.440;13.540;2023-04-06T13:17:37;3.58;;;3.38;;
14738;SDS011;7461;52.440;13.540;2023-04-06T13:20:05;6.05;;;2.85;;
14738;SDS011;7461;52.440;13.540;2023-04-06T13:22:34;3.28;;;2.95;;
14738;SDS011;7461;52.440;13.540;2023-04-06T13:25:01;2.78;;;2.58;;
14738;SDS011;7461;52.440;13.540;2023-04-06T13:27:28;3.45;;;2.95;;
14738;SDS011;7461;52.440;13.540;2023-04-06T13:30:00;3.08;;;2.88;;
14738;SDS011;7461;52.440;13.540;2023-04-06T13:32:27;2.30;;;2.20;;
14738;SDS011;7461;52.440;13.540;2023-04-06T13:34:55;3.92;;;2.97;;
14738;SDS011;7461;52.440;13.540;2023-04-06T13:37:22;5.47;;;3.30;;
14738;SDS011;7461;52.440;13.540;2023-04-06T13:39:50;2.95;;;2.78;;
14738;SDS011;7461;52.440;13.540;2023-04-06T13:42:17;3.10;;;2.90;;
14738;SDS011;7461;52.440;13.540;2023-04-06T13:44:44;2.55;;;2.42;;
14738;SDS011;7461;52.440;13.540;2023-04-06T13:47:12;3.53;;;2.63;;
14738;SDS011;7461;52.440;13.540;2023-04-06T13:49:40;2.70;;;2.50;;
14738;SDS011;7461;52.440;13.540;2023-04-06T13:52:07;2.38;;;2.13;;
14738;SDS011;7461;52.440;13.540;2023-04-06T13:54:35;2.83;;;2.28;;
14738;SDS011;7461;52.440;13.540;2023-04-06T13:57:04;2.35;;;2.22;;
14738;SDS011;7461;52.440;13.540;2023-04-06T13:59:32;3.13;;;2.83;;
14738;SDS011;7461;52.440;13.540;2023-04-06T14:02:00;3.78;;;2.58;;
14738;SDS011;7461;52.440;13.540;2023-04-06T14:04:27;3.38;;;2.88;;
14738;SDS011;7461;52.440;13.540;2023-04-06T14:06:54;2.38;;;2.25;;
14738;SDS011;7461;52.440;13.540;2023-04-06T14:09:21;3.63;;;3.35;;
14738;SDS011;7461;52.440;13.540;2023-04-06T14:11:48;3.47;;;3.17;;
14738;SDS011;7461;52.440;13.540;2023-04-06T14:14:16;3.78;;;3.47;;
14738;SDS011;7461;52.440;13.540;2023-04-06T14:16:43;3.50;;;3.25;;
14738;SDS011;7461;52.440;13.540;2023-04-06T14:19:11;3.03;;;2.83;;
14738;SDS011;7461;52.440;13.540;2023-04-06T14:21:39;2.90;;;2.70;;
14738;SDS011;7461;52.440;13.540;2023-04-06T14:24:06;3.17;;;2.78;;
14738;SDS011;7461;52.440;13.540;2023-04-06T14:26:34;3.67;;;2.95;;
14738;SDS011;7461;52.440;13.540;2023-04-06T14:29:02;3.17;;;2.97;;
14738;SDS011;7461;52.440;13.540;2023-04-06T14:31:30;3.58;;;3.22;;
14738;SDS011;7461;52.440;13.540;2023-04-06T14:33:57;3.55;;;3.25;;
14738;SDS011;7461;52.440;13.540;2023-04-06T14:36:27;3.88;;;3.42;;
14738;SDS011;7461;52.440;13.540;2023-04-06T14:38:54;3.53;;;3.28;;
14738;SDS011;7461;52.440;13.540;2023-04-06T14:41:23;3.22;;;2.92;;